X  Blizu METAR Podaci o vazduhoplovstvu     EDDK Cologne Bonn Airport
Temperatura
73°F Temperatura
55°F Tačka Rose
53% Vlaga



Vetar
5 MPS
8 KM/S
2 M/S
4 Čvorovi



Tiho
S
Trenutna situacija

Delimično oblačno Delimično oblačno
Vazdušni pritisak 1019.98 (hPa) - 30.12 (inHg)
Vidljivost 6 (Milje) - 9.7 (km)
Aerodrom
Aerodromski kod. EDDK

Lokacija: Cologne Bonn Airport
Udaljenost: 56 (mi)

Metar:
EDDK 231120Z AUTO VRB04KT 9999 SCT041 23/13 Q1020 NOSIG

Vreme: 2024-06-23 13:20 CEST